Terminal Aerodrome Forecast
Issued by NWS

Home | Current Version | Previous Version | Text Only | Print | Product List | Glossary On
Versions: 1 2 3 4 5 6 7 8 9 10 11 12 13 14 15 16
000
FTUS46 KMFR 270544
TAFRBG
TAF
KRBG 270544Z 2706/2806 00000KT P6SM SKC
     FM271200 00000KT 3SM BR BKN006
     FM271800 VRB03KT P6SM SCT010 BKN020
     FM272200 28010KT P6SM BKN025 OVC040
     FM280100 31008KT P6SM -RA OVC025=

USA.gov is the U.S. government's official web portal to all federal, state and local government web resources and services.